createdAt,value
2019-06-10T00:00:34.069Z,27.32
2019-06-10T00:03:37.930Z,27.67
2019-06-10T00:06:41.767Z,24.45
2019-06-10T00:09:45.640Z,30.30
2019-06-10T00:12:51.744Z,28.87
2019-06-10T00:15:54.999Z,29.02
2019-06-10T00:19:00.491Z,28.12
2019-06-10T00:22:06.479Z,27.22
2019-06-10T00:25:11.858Z,32.05
2019-06-10T00:28:15.435Z,26.80
2019-06-10T00:31:20.790Z,28.15
2019-06-10T00:34:24.772Z,30.10
2019-06-10T00:37:31.364Z,30.30
2019-06-10T00:40:34.150Z,30.45
2019-06-10T00:43:38.055Z,27.65
2019-06-10T00:46:42.063Z,29.72
2019-06-10T00:49:45.914Z,33.38
2019-06-10T00:52:51.727Z,31.40
2019-06-10T00:55:55.465Z,27.80
2019-06-10T00:59:00.994Z,27.75
2019-06-10T01:02:06.369Z,28.90
2019-06-10T01:05:12.528Z,34.63
2019-06-10T01:08:15.965Z,35.38
2019-06-10T01:11:26.485Z,29.20
2019-06-10T01:14:25.305Z,30.48
2019-06-10T01:17:31.125Z,28.10
2019-06-10T01:20:34.734Z,32.55
2019-06-10T01:23:38.600Z,31.65
2019-06-10T01:26:42.513Z,31.15
2019-06-10T01:29:46.458Z,33.43
2019-06-10T01:32:50.615Z,38.95
2019-06-10T01:35:54.664Z,34.95
2019-06-10T01:38:58.493Z,26.40
2019-06-10T01:42:02.433Z,76.45
2019-06-10T01:45:06.715Z,36.63
2019-06-10T01:48:12.120Z,31.55
2019-06-10T01:51:21.102Z,40.50
2019-06-10T01:54:24.368Z,47.20
2019-06-10T01:57:30.735Z,37.63
2019-06-10T02:00:35.295Z,30.93
2019-06-10T02:03:41.371Z,38.90
2019-06-10T02:06:44.695Z,26.50
2019-06-10T02:09:48.613Z,32.70
2019-06-10T02:12:52.500Z,33.60
2019-06-10T02:15:56.339Z,35.97
2019-06-10T02:19:03.503Z,36.23
2019-06-10T02:22:05.694Z,26.97
2019-06-10T02:25:10.973Z,41.50
2019-06-10T02:28:16.306Z,38.30
2019-06-10T02:31:30.067Z,69.53
2019-06-10T02:34:27.523Z,94.87
2019-06-10T02:37:37.090Z,81.83
2019-06-10T02:40:37.247Z,59.63
2019-06-10T02:43:44.042Z,57.13
2019-06-10T02:46:46.916Z,47.90
2019-06-10T02:50:01.599Z,46.20
2019-06-10T02:52:56.299Z,45.20
2019-06-10T02:56:00.125Z,42.30
2019-06-10T02:59:03.994Z,33.93
2019-06-10T03:02:07.907Z,27.70
2019-06-10T03:05:14.378Z,26.90
2019-06-10T03:08:18.532Z,34.20
2019-06-10T03:11:29.678Z,40.73
2019-06-10T03:14:28.409Z,35.23
2019-06-10T03:17:32.405Z,30.97
2019-06-10T03:20:36.324Z,26.90
2019-06-10T03:23:42.499Z,32.83
2019-06-10T03:26:45.674Z,44.73
2019-06-10T03:29:49.563Z,31.00
2019-06-10T03:32:55.524Z,32.60
2019-06-10T03:35:58.920Z,31.93
2019-06-10T03:39:03.823Z,33.40
2019-06-10T03:42:07.699Z,30.90
2019-06-10T03:45:12.700Z,30.57
2019-06-10T03:48:17.099Z,30.93
2019-06-10T03:51:21.837Z,28.93
2019-06-10T03:54:29.120Z,30.05
2019-06-10T03:57:33.085Z,29.48
2019-06-10T04:00:37.215Z,26.50
2019-06-10T04:03:42.692Z,29.00
2019-06-10T04:06:46.784Z,27.60
2019-06-10T04:09:52.507Z,24.32
2019-06-10T04:12:56.124Z,26.48
2019-06-10T04:16:02.163Z,26.68
2019-06-10T04:19:05.474Z,25.15
2019-06-10T04:22:09.312Z,24.27
2019-06-10T04:25:13.401Z,27.50
2019-06-10T04:28:17.774Z,21.05
2019-06-10T04:31:23.809Z,18.60
2019-06-10T04:34:29.084Z,22.58
2019-06-10T04:37:32.724Z,19.65
2019-06-10T04:40:36.587Z,16.42
2019-06-10T04:43:42.936Z,16.37
2019-06-10T04:46:45.925Z,14.83
2019-06-10T04:49:52.126Z,16.50
2019-06-10T04:52:55.311Z,15.20
2019-06-10T04:55:59.245Z,14.25
2019-06-10T04:59:03.313Z,13.50
2019-06-10T05:02:07.273Z,14.25
2019-06-10T05:05:13.129Z,12.60
2019-06-10T05:08:16.714Z,15.98
2019-06-10T05:11:21.729Z,11.50
2019-06-10T05:14:27.398Z,11.40
2019-06-10T05:17:34.080Z,11.10
2019-06-10T05:20:51.985Z,11.63
2019-06-10T05:23:43.144Z,14.15
2019-06-10T05:26:47.085Z,11.78
2019-06-10T05:29:52.741Z,9.83
2019-06-10T05:32:56.475Z,11.48
2019-06-10T05:36:12.842Z,11.63
2019-06-10T05:39:15.204Z,10.20
2019-06-10T05:42:19.026Z,10.30
2019-06-10T05:45:24.706Z,9.38
2019-06-10T05:48:28.367Z,10.93
2019-06-10T05:51:35.117Z,8.85
2019-06-10T05:54:37.687Z,13.35
2019-06-10T05:57:42.838Z,9.60
2019-06-10T06:00:46.864Z,9.60
2019-06-10T06:03:53.004Z,8.93
2019-06-10T06:06:56.323Z,11.80
2019-06-10T06:10:02.263Z,14.03
2019-06-10T06:13:05.659Z,11.15
2019-06-10T06:16:12.362Z,8.53
2019-06-10T06:19:15.578Z,14.13
2019-06-10T06:22:21.980Z,9.83
2019-06-10T06:25:27.424Z,8.40
2019-06-10T06:31:37.385Z,9.10
2019-06-10T06:34:43.150Z,9.88
2019-06-10T06:37:47.091Z,7.85
2019-06-10T06:40:53.699Z,9.48
2019-06-10T06:43:56.441Z,10.72
2019-06-10T06:47:02.551Z,11.10
2019-06-10T06:50:06.627Z,8.28
2019-06-10T06:53:21.299Z,9.03
2019-06-10T06:56:16.010Z,12.60
2019-06-10T06:59:22.282Z,8.88
2019-06-10T07:02:25.423Z,9.55
2019-06-10T07:05:32.286Z,7.70
2019-06-10T07:08:37.759Z,10.15
2019-06-10T07:11:45.376Z,9.53
2019-06-10T07:14:52.643Z,9.08
2019-06-10T07:17:56.581Z,7.87
2019-06-10T07:21:02.551Z,10.18
2019-06-10T07:24:05.968Z,10.90
2019-06-10T07:27:09.793Z,10.15
2019-06-10T07:30:15.209Z,12.88
2019-06-10T07:33:19.412Z,12.05
2019-06-10T07:36:23.745Z,8.53
2019-06-10T07:39:27.613Z,12.28
2019-06-10T07:42:33.222Z,11.15
2019-06-10T07:45:38.989Z,10.78
2019-06-10T07:48:47.688Z,11.43
2019-06-10T07:51:48.026Z,9.98
2019-06-10T07:54:53.008Z,11.03
2019-06-10T07:57:57.186Z,11.68
2019-06-10T08:01:02.693Z,12.53
2019-06-10T08:04:06.789Z,10.00
2019-06-10T08:07:12.488Z,10.68
2019-06-10T08:10:16.379Z,12.43
2019-06-10T08:13:22.507Z,12.73
2019-06-10T08:16:25.966Z,12.80
2019-06-10T08:19:35.746Z,17.07
2019-06-10T08:22:41.732Z,9.40
2019-06-10T08:25:43.769Z,10.63
2019-06-10T08:28:48.247Z,10.38
2019-06-10T08:31:53.181Z,11.30
2019-06-10T08:34:57.356Z,9.33
2019-06-10T08:38:02.439Z,14.98
2019-06-10T08:41:06.471Z,13.72
2019-06-10T08:44:12.432Z,15.18
2019-06-10T08:47:15.859Z,10.68
2019-06-10T08:50:22.278Z,10.25
2019-06-10T08:53:25.290Z,11.25
2019-06-10T08:56:32.570Z,19.70
2019-06-10T08:59:35.913Z,18.37
2019-06-10T09:02:41.917Z,15.70
2019-06-10T09:05:47.808Z,12.90
2019-06-10T09:08:53.879Z,18.12
2019-06-10T09:11:56.291Z,15.58
2019-06-10T09:15:03.177Z,10.65
2019-06-10T09:18:05.810Z,12.15
2019-06-10T09:21:09.726Z,12.82
2019-06-10T09:24:13.564Z,12.10
2019-06-10T09:27:17.440Z,10.50
2019-06-10T09:30:23.287Z,12.73
2019-06-10T09:33:27.197Z,11.63
2019-06-10T09:36:32.552Z,14.43
2019-06-10T09:39:36.541Z,14.05
2019-06-10T09:42:44.540Z,11.35
2019-06-10T09:45:49.132Z,11.00
2019-06-10T09:48:55.832Z,12.98
2019-06-10T09:51:59.048Z,11.15
2019-06-10T09:55:03.276Z,12.23
2019-06-10T09:58:07.815Z,11.93
2019-06-10T10:01:13.389Z,19.12
2019-06-10T10:04:17.393Z,10.55
2019-06-10T10:07:22.632Z,12.13
2019-06-10T10:10:35.614Z,8.93
2019-06-10T10:13:39.454Z,10.18
2019-06-10T10:16:47.892Z,9.60
2019-06-10T10:19:50.230Z,8.45
2019-06-10T10:22:55.499Z,9.35
2019-06-10T10:25:59.379Z,12.85
2019-06-10T10:29:03.350Z,9.55
2019-06-10T10:32:07.215Z,11.33
2019-06-10T10:35:12.645Z,10.43
2019-06-10T10:38:16.685Z,9.55
2019-06-10T10:41:23.198Z,9.60
2019-06-10T10:44:26.056Z,10.23
2019-06-10T10:47:33.314Z,9.43
2019-06-10T10:50:35.728Z,8.60
2019-06-10T10:53:39.621Z,8.95
2019-06-10T10:56:45.709Z,9.58
2019-06-10T10:59:49.512Z,9.63
2019-06-10T11:02:54.372Z,9.33
2019-06-10T11:06:00.937Z,10.55
2019-06-10T11:09:05.325Z,10.80
2019-06-10T11:12:09.235Z,9.43
2019-06-10T11:15:16.015Z,10.82
2019-06-10T11:18:22.334Z,10.82
2019-06-10T11:21:25.410Z,12.63
2019-06-10T11:24:37.805Z,12.05
2019-06-10T11:27:34.956Z,14.78
2019-06-10T11:30:39.054Z,11.10
2019-06-10T11:33:43.710Z,10.88
2019-06-10T11:36:47.958Z,13.40
2019-06-10T11:39:52.323Z,10.75
2019-06-10T11:42:59.517Z,12.47
2019-06-10T11:46:07.212Z,11.88
2019-06-10T11:49:07.354Z,14.20
2019-06-10T11:52:12.597Z,14.38
2019-06-10T11:55:19.325Z,11.90
2019-06-10T11:58:22.525Z,13.38
2019-06-10T12:01:26.409Z,11.85
2019-06-10T12:04:30.350Z,10.85
2019-06-10T12:07:34.227Z,12.63
2019-06-10T12:10:38.070Z,13.88
2019-06-10T12:13:42.783Z,13.05
2019-06-10T12:19:56.471Z,14.58
2019-06-10T12:22:58.806Z,16.32
2019-06-10T12:26:04.811Z,11.55
2019-06-10T12:29:09.039Z,11.05
2019-06-10T12:32:13.501Z,11.53
2019-06-10T12:35:17.744Z,12.88
2019-06-10T12:38:22.772Z,12.90
2019-06-10T12:41:27.552Z,10.08
2019-06-10T12:44:33.715Z,9.98
2019-06-10T12:47:37.063Z,10.55
2019-06-10T12:50:42.871Z,15.83
2019-06-10T12:53:46.903Z,11.78
2019-06-10T12:56:52.802Z,12.37
2019-06-10T12:59:56.386Z,13.83
2019-06-10T13:03:03.568Z,11.60
2019-06-10T13:06:08.983Z,10.45
2019-06-10T13:09:13.009Z,12.07
2019-06-10T13:12:16.873Z,11.50
2019-06-10T13:15:22.244Z,13.00
2019-06-10T13:18:27.803Z,13.90
2019-06-10T13:21:33.003Z,13.22
2019-06-10T13:24:37.215Z,11.73
2019-06-10T13:27:42.845Z,9.40
2019-06-10T13:30:46.652Z,8.18
2019-06-10T13:33:52.753Z,11.53
2019-06-10T13:36:56.726Z,10.25
2019-06-10T13:40:02.247Z,10.78
2019-06-10T13:43:06.131Z,9.88
2019-06-10T13:46:10.976Z,10.32
2019-06-10T13:49:15.481Z,11.00
2019-06-10T13:52:19.486Z,10.43
2019-06-10T13:55:23.304Z,9.83
2019-06-10T13:58:27.181Z,8.25
2019-06-10T14:01:34.949Z,9.73
2019-06-10T14:04:36.645Z,8.98
2019-06-10T14:07:40.450Z,11.15
2019-06-10T14:10:44.340Z,9.05
2019-06-10T14:13:48.480Z,9.68
2019-06-10T14:16:53.984Z,12.18
2019-06-10T14:19:58.232Z,9.58
2019-06-10T14:23:02.569Z,12.50
2019-06-10T14:26:09.538Z,10.40
2019-06-10T14:29:15.882Z,10.03
2019-06-10T14:32:19.515Z,9.40
2019-06-10T14:35:26.683Z,12.55
2019-06-10T14:38:28.916Z,9.40
2019-06-10T14:41:32.796Z,9.85
2019-06-10T14:44:36.593Z,9.80
2019-06-10T14:47:42.995Z,8.18
2019-06-10T14:50:45.923Z,9.45
2019-06-10T14:53:49.812Z,10.78
2019-06-10T14:56:57.109Z,9.25
2019-06-10T14:59:59.183Z,11.68
2019-06-10T15:03:05.674Z,10.38
2019-06-10T15:06:09.183Z,8.23
2019-06-10T15:09:13.695Z,8.08
2019-06-10T15:12:17.706Z,10.90
2019-06-10T15:15:23.713Z,11.05
2019-06-10T15:18:27.257Z,8.53
2019-06-10T15:21:32.364Z,11.25
2019-06-10T15:24:36.422Z,10.32
2019-06-10T15:27:42.753Z,14.90
2019-06-10T15:30:46.147Z,11.43
2019-06-10T15:33:52.289Z,8.65
2019-06-10T15:36:55.554Z,12.58
2019-06-10T15:39:59.380Z,8.65
2019-06-10T15:43:06.200Z,12.05
2019-06-10T15:46:09.886Z,11.48
2019-06-10T15:49:17.573Z,9.75
2019-06-10T15:52:20.644Z,9.65
2019-06-10T15:55:49.326Z,10.25
2019-06-10T15:58:32.122Z,11.00
2019-06-10T16:01:36.117Z,12.73
2019-06-10T16:04:40.034Z,11.85
2019-06-10T16:07:44.130Z,12.00
2019-06-10T16:10:48.018Z,9.33
2019-06-10T16:13:53.379Z,14.03
2019-06-10T16:16:57.414Z,13.22
2019-06-10T16:20:03.668Z,9.60
2019-06-10T16:23:06.937Z,13.60
2019-06-10T16:26:13.080Z,13.70
2019-06-10T16:29:17.074Z,11.85
2019-06-10T16:32:23.261Z,10.72
2019-06-10T16:35:27.046Z,11.75
2019-06-10T16:38:32.853Z,10.78
2019-06-10T16:41:36.850Z,12.85
2019-06-10T16:44:42.337Z,11.78
2019-06-10T16:47:46.420Z,11.45
2019-06-10T16:50:53.989Z,15.95
2019-06-10T16:53:55.894Z,11.38
2019-06-10T16:56:59.825Z,11.78
2019-06-10T17:00:11.309Z,13.75
2019-06-10T17:03:12.824Z,12.98
2019-06-10T17:06:17.438Z,13.90
2019-06-10T17:09:23.519Z,12.07
2019-06-10T17:12:27.656Z,13.70
2019-06-10T17:15:31.766Z,13.13
2019-06-10T17:18:35.690Z,17.23
2019-06-10T17:21:42.054Z,19.15
2019-06-10T17:24:45.190Z,15.15
2019-06-10T17:27:49.184Z,23.20
2019-06-10T17:30:54.494Z,17.95
2019-06-10T17:33:58.456Z,17.90
2019-06-10T17:37:03.145Z,23.07
2019-06-10T17:40:08.027Z,23.02
2019-06-10T17:43:12.130Z,25.75
2019-06-10T17:46:18.907Z,29.35
2019-06-10T17:49:25.462Z,18.50
2019-06-10T17:52:28.382Z,21.02
2019-06-10T17:55:34.067Z,23.22
2019-06-10T17:58:53.416Z,15.60
2019-06-10T18:01:43.651Z,31.95
2019-06-10T18:04:47.920Z,61.65
2019-06-10T18:07:52.749Z,63.60
2019-06-10T18:10:57.056Z,42.40
2019-06-10T18:14:02.691Z,38.15
2019-06-10T18:17:06.737Z,39.78
2019-06-10T18:20:13.582Z,32.15
2019-06-10T18:23:16.839Z,28.65
2019-06-10T18:26:23.146Z,24.52
2019-06-10T18:29:27.171Z,26.30
2019-06-10T18:32:32.851Z,43.58
2019-06-10T18:35:37.649Z,54.05
2019-06-10T18:38:43.417Z,35.40
2019-06-10T18:41:47.291Z,32.23
2019-06-10T18:44:52.247Z,21.90
2019-06-10T18:47:56.462Z,23.77
2019-06-10T18:51:00.451Z,18.62
2019-06-10T18:54:04.484Z,18.73
2019-06-10T18:57:08.864Z,24.65
2019-06-10T19:00:15.203Z,21.50
2019-06-10T19:03:19.225Z,23.40
2019-06-10T19:06:23.541Z,19.12
2019-06-10T19:09:28.974Z,27.93
2019-06-10T19:12:34.044Z,19.60
2019-06-10T19:15:39.782Z,20.92
2019-06-10T19:18:44.173Z,15.93
2019-06-10T19:22:01.849Z,20.55
2019-06-10T19:24:54.056Z,15.10
2019-06-10T19:27:57.976Z,15.85
2019-06-10T19:31:02.402Z,17.55
2019-06-10T19:34:06.466Z,18.25
2019-06-10T19:37:12.750Z,15.58
2019-06-10T19:40:16.414Z,19.82
2019-06-10T19:43:20.394Z,17.20
2019-06-10T19:46:24.294Z,19.23
2019-06-10T19:49:28.238Z,17.25
2019-06-10T19:52:33.543Z,18.50
2019-06-10T19:55:38.960Z,19.77
2019-06-10T19:58:44.432Z,16.80
2019-06-10T20:01:48.939Z,19.48
2019-06-10T20:04:53.164Z,18.95
2019-06-10T20:07:57.277Z,16.57
2019-06-10T20:11:03.248Z,18.50
2019-06-10T20:14:07.007Z,17.42
2019-06-10T20:17:13.238Z,19.23
2019-06-10T20:20:16.936Z,16.80
2019-06-10T20:23:21.154Z,15.28
2019-06-10T20:26:27.817Z,18.05
2019-06-10T20:29:32.824Z,17.07
2019-06-10T20:32:37.184Z,23.73
2019-06-10T20:35:42.141Z,20.90
2019-06-10T20:38:48.876Z,19.07
2019-06-10T20:41:55.812Z,18.50
2019-06-10T20:45:08.492Z,23.00
2019-06-10T20:48:13.471Z,17.82
2019-06-10T20:51:17.511Z,22.37
2019-06-10T20:54:23.197Z,21.95
2019-06-10T20:57:27.331Z,20.45
2019-06-10T21:00:42.010Z,21.48
2019-06-10T21:03:47.006Z,20.68
2019-06-10T21:06:52.992Z,23.80
2019-06-10T21:09:59.136Z,18.32
2019-06-10T21:13:03.658Z,22.95
2019-06-10T21:16:07.636Z,30.97
2019-06-10T21:19:11.505Z,22.70
2019-06-10T21:22:15.543Z,24.25
2019-06-10T21:25:19.446Z,22.22
2019-06-10T21:28:23.379Z,22.20
2019-06-10T21:31:29.485Z,24.43
2019-06-10T21:34:32.929Z,23.50
2019-06-10T21:37:36.813Z,23.40
2019-06-10T21:40:42.509Z,21.95
2019-06-10T21:43:49.854Z,22.30
2019-06-10T21:46:52.347Z,24.10
2019-06-10T21:49:56.287Z,24.85
2019-06-10T21:53:02.634Z,25.62
2019-06-10T21:56:05.663Z,23.20
2019-06-10T21:59:09.520Z,29.52
2019-06-10T22:02:13.425Z,23.62
2019-06-10T22:05:17.251Z,23.57
2019-06-10T22:08:21.131Z,24.52
2019-06-10T22:11:24.983Z,25.65
2019-06-10T22:14:29.081Z,22.07
2019-06-10T22:17:32.945Z,23.50
2019-06-10T22:20:36.897Z,27.30
2019-06-10T22:23:42.374Z,23.60
2019-06-10T22:26:46.837Z,31.12
2019-06-10T22:29:51.928Z,25.37
2019-06-10T22:32:57.814Z,27.80
2019-06-10T22:36:02.398Z,29.75
2019-06-10T22:39:06.534Z,27.32
2019-06-10T22:42:12.225Z,28.30
2019-06-10T22:45:15.925Z,30.32
2019-06-10T22:48:19.811Z,31.20
2019-06-10T22:51:24.236Z,31.40
2019-06-10T22:54:28.160Z,32.63
2019-06-10T22:57:31.979Z,27.65
2019-06-10T23:00:35.865Z,28.83
2019-06-10T23:03:39.764Z,29.65
2019-06-10T23:06:43.683Z,29.60
2019-06-10T23:09:48.620Z,32.03
2019-06-10T23:12:54.723Z,32.58
2019-06-10T23:15:58.659Z,30.00
2019-06-10T23:19:03.655Z,31.73
2019-06-10T23:22:07.531Z,34.90
2019-06-10T23:25:12.675Z,34.43
2019-06-10T23:28:16.724Z,35.23
2019-06-10T23:31:22.860Z,34.65
2019-06-10T23:34:26.105Z,35.38
2019-06-10T23:37:32.108Z,41.18
2019-06-10T23:40:35.465Z,38.38
2019-06-10T23:43:39.364Z,35.33
2019-06-10T23:46:43.302Z,36.40
2019-06-10T23:49:47.114Z,36.17
2019-06-10T23:52:54.125Z,33.18
2019-06-10T23:55:57.979Z,38.20
2019-06-10T23:59:03.496Z,39.65
